createdAt,value
2023-01-03T00:00:15.724Z,76.75
2023-01-03T00:03:00.548Z,77.20
2023-01-03T00:05:45.407Z,77.27
2023-01-03T00:08:30.116Z,76.50
2023-01-03T00:11:14.944Z,76.64
2023-01-03T00:13:59.879Z,75.72
2023-01-03T00:16:44.824Z,76.00
2023-01-03T00:19:29.664Z,76.57
2023-01-03T00:22:14.478Z,77.60
2023-01-03T00:24:59.664Z,77.57
2023-01-03T00:27:44.757Z,76.85
2023-01-03T00:30:29.812Z,77.30
2023-01-03T00:33:14.711Z,76.86
2023-01-03T00:35:59.614Z,76.16
2023-01-03T00:38:44.477Z,77.05
2023-01-03T00:41:29.488Z,75.87
2023-01-03T00:44:14.503Z,74.98
2023-01-03T00:46:59.348Z,75.61
2023-01-03T00:49:44.450Z,74.94
2023-01-03T00:52:29.283Z,75.09
2023-01-03T00:55:14.152Z,76.50
2023-01-03T00:57:58.957Z,77.30
2023-01-03T01:00:43.862Z,77.40
2023-01-03T01:03:29.065Z,77.80
2023-01-03T01:06:14.209Z,76.75
2023-01-03T01:08:59.002Z,75.80
2023-01-03T01:11:43.822Z,75.79
2023-01-03T01:14:28.796Z,76.77
2023-01-03T01:17:17.830Z,76.31
2023-01-03T01:20:05.924Z,76.24
2023-01-03T01:22:50.836Z,77.68
2023-01-03T01:25:35.907Z,75.60
2023-01-03T01:28:20.761Z,76.99
2023-01-03T01:31:05.674Z,77.27
2023-01-03T01:33:52.925Z,76.11
2023-01-03T01:36:38.005Z,75.66
2023-01-03T01:39:23.044Z,76.64
2023-01-03T01:42:07.817Z,78.05
2023-01-03T01:44:52.615Z,76.94
2023-01-03T01:47:37.539Z,76.85
2023-01-03T01:50:22.469Z,75.87
2023-01-03T01:53:07.369Z,75.34
2023-01-03T01:55:52.329Z,74.92
2023-01-03T01:58:37.075Z,75.55
2023-01-03T02:01:22.110Z,74.30
2023-01-03T02:04:07.397Z,74.36
2023-01-03T02:06:52.521Z,73.66
2023-01-03T02:09:37.495Z,73.57
2023-01-03T02:12:22.333Z,74.81
2023-01-03T02:15:07.412Z,75.47
2023-01-03T02:17:52.200Z,75.60
2023-01-03T02:20:37.299Z,75.22
2023-01-03T02:23:22.279Z,72.87
2023-01-03T02:26:07.264Z,72.91
2023-01-03T02:28:52.160Z,74.37
2023-01-03T02:31:37.079Z,74.76
2023-01-03T02:34:21.933Z,71.50
2023-01-03T02:37:06.729Z,74.56
2023-01-03T02:39:51.729Z,75.82
2023-01-03T02:42:36.560Z,76.46
2023-01-03T02:45:21.444Z,76.75
2023-01-03T02:48:06.302Z,76.65
2023-01-03T02:50:51.235Z,76.62
2023-01-03T02:53:36.134Z,76.06
2023-01-03T02:56:20.989Z,76.48
2023-01-03T02:59:05.931Z,76.56
2023-01-03T03:01:50.868Z,75.91
2023-01-03T03:04:36.212Z,77.89
2023-01-03T03:07:21.021Z,77.14
2023-01-03T03:10:05.861Z,76.44
2023-01-03T03:12:50.892Z,75.98
2023-01-03T03:15:35.896Z,76.28
2023-01-03T03:18:20.829Z,75.99
2023-01-03T03:21:05.769Z,77.69
2023-01-03T03:23:50.706Z,77.83
2023-01-03T03:26:35.612Z,78.94
2023-01-03T03:29:20.689Z,77.25
2023-01-03T03:32:05.583Z,76.89
2023-01-03T03:34:50.475Z,76.80
2023-01-03T03:37:35.281Z,77.72
2023-01-03T03:40:20.226Z,77.14
2023-01-03T03:43:05.156Z,77.22
2023-01-03T03:45:50.005Z,76.08
2023-01-03T03:48:34.835Z,74.71
2023-01-03T03:51:19.753Z,75.84
2023-01-03T03:54:04.738Z,77.37
2023-01-03T03:56:49.667Z,76.04
2023-01-03T03:59:34.595Z,76.08
2023-01-03T04:02:19.678Z,75.08
2023-01-03T04:05:04.990Z,75.51
2023-01-03T04:07:49.850Z,74.47
2023-01-03T04:10:37.995Z,73.28
2023-01-03T04:13:23.433Z,72.27
2023-01-03T04:16:08.252Z,72.77
2023-01-03T04:18:53.226Z,71.11
2023-01-03T04:21:38.104Z,72.83
2023-01-03T04:24:22.868Z,72.55
2023-01-03T04:27:07.737Z,73.79
2023-01-03T04:29:52.591Z,72.73
2023-01-03T04:32:37.482Z,74.20
2023-01-03T04:35:22.251Z,71.46
2023-01-03T04:38:07.397Z,71.32
2023-01-03T04:40:52.181Z,71.18
2023-01-03T04:43:37.251Z,71.58
2023-01-03T04:46:22.261Z,72.49
2023-01-03T04:49:07.534Z,72.54
2023-01-03T04:51:52.542Z,70.63
2023-01-03T04:54:37.407Z,70.04
2023-01-03T04:57:22.397Z,68.86
2023-01-03T05:00:07.229Z,70.50
2023-01-03T05:02:51.985Z,69.70
2023-01-03T05:05:36.987Z,70.30
2023-01-03T05:08:21.974Z,71.06
2023-01-03T05:11:06.999Z,69.48
2023-01-03T05:13:51.904Z,70.56
2023-01-03T05:16:36.843Z,70.41
2023-01-03T05:19:21.658Z,72.50
2023-01-03T05:22:06.481Z,71.73
2023-01-03T05:24:51.255Z,71.24
2023-01-03T05:27:36.096Z,70.86
2023-01-03T05:30:21.025Z,69.98
2023-01-03T05:33:05.899Z,69.70
2023-01-03T05:35:50.892Z,69.51
2023-01-03T05:38:35.649Z,69.52
2023-01-03T05:41:20.577Z,70.17
2023-01-03T05:44:05.471Z,71.57
2023-01-03T05:46:50.454Z,72.85
2023-01-03T05:49:35.368Z,70.84
2023-01-03T05:52:20.248Z,72.95
2023-01-03T05:55:05.034Z,72.83
2023-01-03T05:57:50.127Z,73.30
2023-01-03T06:00:35.133Z,73.12
2023-01-03T06:03:19.928Z,74.03
2023-01-03T06:06:04.897Z,74.13
2023-01-03T06:08:49.761Z,72.85
2023-01-03T06:11:34.678Z,73.43
2023-01-03T06:14:19.432Z,73.77
2023-01-03T06:17:04.372Z,73.13
2023-01-03T06:19:49.116Z,73.41
2023-01-03T06:22:34.025Z,74.41
2023-01-03T06:25:18.977Z,73.75
2023-01-03T06:28:03.915Z,73.38
2023-01-03T06:30:48.939Z,72.84
2023-01-03T06:33:33.823Z,74.27
2023-01-03T06:36:18.701Z,74.19
2023-01-03T06:39:03.569Z,74.29
2023-01-03T06:41:48.559Z,74.12
2023-01-03T06:44:33.319Z,74.01
2023-01-03T06:47:18.278Z,72.63
2023-01-03T06:50:03.346Z,72.44
2023-01-03T06:52:48.142Z,72.28
2023-01-03T06:55:32.946Z,74.18
2023-01-03T06:58:17.827Z,74.71
2023-01-03T07:01:02.983Z,74.58
2023-01-03T07:03:48.129Z,75.53
2023-01-03T07:06:32.967Z,74.91
2023-01-03T07:09:17.876Z,74.66
2023-01-03T07:12:02.803Z,75.06
2023-01-03T07:14:47.744Z,75.12
2023-01-03T07:17:32.545Z,74.20
2023-01-03T07:20:17.468Z,73.09
2023-01-03T07:23:02.183Z,73.18
2023-01-03T07:25:47.077Z,73.57
2023-01-03T07:28:31.810Z,75.00
2023-01-03T07:31:16.648Z,72.02
2023-01-03T07:34:01.543Z,72.28
2023-01-03T07:36:46.538Z,73.02
2023-01-03T07:39:31.495Z,73.71
2023-01-03T07:42:16.478Z,71.94
2023-01-03T07:45:01.411Z,73.97
2023-01-03T07:47:46.324Z,74.21
2023-01-03T07:50:31.205Z,73.45
2023-01-03T07:53:15.961Z,75.08
2023-01-03T07:56:00.908Z,75.34
2023-01-03T07:58:45.817Z,74.69
2023-01-03T08:01:30.958Z,75.30
2023-01-03T08:04:16.201Z,74.46
2023-01-03T08:07:01.137Z,73.36
2023-01-03T08:09:46.170Z,74.93
2023-01-03T08:12:30.933Z,75.19
2023-01-03T08:15:15.996Z,74.80
2023-01-03T08:18:00.789Z,75.78
2023-01-03T08:20:45.687Z,75.06
2023-01-03T08:23:30.478Z,74.51
2023-01-03T08:26:15.404Z,72.89
2023-01-03T08:29:00.322Z,73.24
2023-01-03T08:31:45.287Z,73.57
2023-01-03T08:34:30.531Z,73.41
2023-01-03T08:37:15.700Z,73.48
2023-01-03T08:40:00.679Z,73.06
2023-01-03T08:42:45.395Z,73.49
2023-01-03T08:45:30.425Z,73.63
2023-01-03T08:48:15.388Z,73.97
2023-01-03T08:51:00.456Z,72.91
2023-01-03T08:53:45.359Z,73.13
2023-01-03T08:56:30.139Z,72.46
2023-01-03T08:59:15.165Z,73.21
2023-01-03T09:02:00.190Z,72.37
2023-01-03T09:04:45.522Z,71.81
2023-01-03T09:07:30.336Z,72.57
2023-01-03T09:10:15.246Z,71.93
2023-01-03T09:13:00.112Z,73.02
2023-01-03T09:15:45.008Z,72.91
2023-01-03T09:18:29.832Z,71.78
2023-01-03T09:21:14.584Z,72.40
2023-01-03T09:23:59.659Z,72.09
2023-01-03T09:26:47.940Z,72.11
2023-01-03T09:29:35.676Z,72.61
2023-01-03T09:32:20.569Z,72.09
2023-01-03T09:35:05.909Z,72.41
2023-01-03T09:37:50.878Z,71.89
2023-01-03T09:40:35.895Z,71.26
2023-01-03T09:43:25.296Z,71.33
2023-01-03T09:46:11.089Z,71.42
2023-01-03T09:48:55.962Z,72.58
2023-01-03T09:51:41.061Z,71.67
2023-01-03T09:54:25.976Z,73.45
2023-01-03T09:57:10.861Z,72.51
2023-01-03T09:59:55.749Z,72.09
2023-01-03T10:02:40.729Z,73.08
2023-01-03T10:05:26.186Z,72.43
2023-01-03T10:08:11.001Z,72.11
2023-01-03T10:10:55.810Z,71.35
2023-01-03T10:13:40.801Z,72.28
2023-01-03T10:16:25.965Z,73.21
2023-01-03T10:19:11.376Z,72.77
2023-01-03T10:21:56.082Z,72.24
2023-01-03T10:24:41.023Z,73.00
2023-01-03T10:27:25.844Z,72.69
2023-01-03T10:30:10.718Z,72.99
2023-01-03T10:32:55.631Z,72.39
2023-01-03T10:35:40.557Z,72.88
2023-01-03T10:38:25.452Z,72.67
2023-01-03T10:41:10.278Z,72.62
2023-01-03T10:43:55.290Z,73.07
2023-01-03T10:46:40.159Z,72.92
2023-01-03T10:49:28.598Z,72.95
2023-01-03T10:52:14.715Z,73.52
2023-01-03T10:54:59.587Z,72.17
2023-01-03T10:57:44.651Z,72.17
2023-01-03T11:00:29.366Z,73.00
2023-01-03T11:03:14.420Z,74.29
2023-01-03T11:05:59.508Z,73.41
2023-01-03T11:08:44.348Z,75.13
2023-01-03T11:11:29.254Z,73.71
2023-01-03T11:14:14.026Z,72.88
2023-01-03T11:16:58.939Z,72.86
2023-01-03T11:19:44.326Z,73.58
2023-01-03T11:22:32.351Z,74.15
2023-01-03T11:25:20.435Z,73.11
2023-01-03T11:28:09.064Z,73.83
2023-01-03T11:30:57.329Z,73.29
2023-01-03T11:33:42.252Z,73.01
2023-01-03T11:36:27.193Z,73.22
2023-01-03T11:39:15.602Z,76.14
2023-01-03T11:42:02.341Z,74.20
2023-01-03T11:44:47.161Z,76.17
2023-01-03T11:47:32.356Z,75.75
2023-01-03T11:50:17.615Z,74.55
2023-01-03T11:53:02.475Z,75.61
2023-01-03T11:55:47.567Z,73.36
2023-01-03T11:58:32.464Z,73.01
2023-01-03T12:01:17.471Z,73.83
2023-01-03T12:04:02.241Z,75.04
2023-01-03T12:06:47.542Z,73.55
2023-01-03T12:09:32.409Z,74.23
2023-01-03T12:12:17.395Z,73.60
2023-01-03T12:15:02.485Z,73.45
2023-01-03T12:17:47.304Z,73.48
2023-01-03T12:20:32.282Z,75.05
2023-01-03T12:23:17.137Z,73.44
2023-01-03T12:26:02.027Z,74.66
2023-01-03T12:28:46.926Z,73.43
2023-01-03T12:31:32.569Z,73.77
2023-01-03T12:34:17.783Z,74.27
2023-01-03T12:37:02.624Z,75.69
2023-01-03T12:39:47.584Z,73.92
2023-01-03T12:42:32.587Z,73.18
2023-01-03T12:45:17.563Z,72.86
2023-01-03T12:48:02.560Z,72.31
2023-01-03T12:50:47.534Z,71.44
2023-01-03T12:53:32.441Z,72.27
2023-01-03T12:56:17.376Z,71.85
2023-01-03T12:59:02.330Z,73.14
2023-01-03T13:01:47.218Z,71.74
2023-01-03T13:04:32.186Z,72.28
2023-01-03T13:07:17.005Z,71.91
2023-01-03T13:10:02.129Z,72.97
2023-01-03T13:12:47.284Z,71.81
2023-01-03T13:15:36.547Z,71.35
2023-01-03T13:18:22.792Z,70.56
2023-01-03T13:21:07.691Z,71.81
2023-01-03T13:23:52.778Z,71.03
2023-01-03T13:26:37.485Z,70.28
2023-01-03T13:29:22.403Z,71.93
2023-01-03T13:32:07.451Z,71.62
2023-01-03T13:34:52.341Z,73.28
2023-01-03T13:37:37.364Z,72.63
2023-01-03T13:40:22.361Z,72.22
2023-01-03T13:43:07.329Z,72.78
2023-01-03T13:45:52.131Z,71.42
2023-01-03T13:48:37.247Z,72.96
2023-01-03T13:51:22.486Z,72.67
2023-01-03T13:54:07.295Z,71.83
2023-01-03T13:56:52.268Z,70.89
2023-01-03T13:59:37.055Z,71.66
2023-01-03T14:02:22.201Z,70.67
2023-01-03T14:05:08.647Z,71.56
2023-01-03T14:07:53.779Z,71.50
2023-01-03T14:10:38.849Z,72.27
2023-01-03T14:13:23.667Z,72.10
2023-01-03T14:16:08.737Z,71.28
2023-01-03T14:18:53.389Z,72.03
2023-01-03T14:21:38.458Z,72.26
2023-01-03T14:24:23.282Z,72.77
2023-01-03T14:27:13.070Z,73.12
2023-01-03T14:30:01.984Z,75.03
2023-01-03T14:32:47.095Z,74.22
2023-01-03T14:35:32.029Z,74.37
2023-01-03T14:38:17.066Z,74.31
2023-01-03T14:41:02.016Z,74.24
2023-01-03T14:43:46.895Z,73.81
2023-01-03T14:46:31.786Z,74.19
2023-01-03T14:49:17.124Z,73.63
2023-01-03T14:52:02.006Z,75.65
2023-01-03T14:54:46.995Z,74.08
2023-01-03T14:57:32.084Z,73.85
2023-01-03T15:00:16.843Z,73.39
2023-01-03T15:03:01.921Z,73.36
2023-01-03T15:05:47.034Z,73.57
2023-01-03T15:08:31.935Z,73.32
2023-01-03T15:11:16.860Z,73.34
2023-01-03T15:14:01.855Z,74.21
2023-01-03T15:16:46.812Z,73.85
2023-01-03T15:19:31.994Z,74.46
2023-01-03T15:22:17.087Z,74.35
2023-01-03T15:25:01.831Z,74.73
2023-01-03T15:27:46.883Z,73.94
2023-01-03T15:30:31.788Z,75.12
2023-01-03T15:33:16.895Z,75.59
2023-01-03T15:36:01.642Z,74.78
2023-01-03T15:38:46.533Z,74.73
2023-01-03T15:41:31.476Z,73.67
2023-01-03T15:44:16.418Z,74.37
2023-01-03T15:47:01.394Z,74.54
2023-01-03T15:49:46.169Z,75.24
2023-01-03T15:52:31.097Z,75.03
2023-01-03T15:55:15.964Z,74.56
2023-01-03T15:58:00.985Z,74.27
2023-01-03T16:00:45.905Z,74.94
2023-01-03T16:03:31.008Z,76.00
2023-01-03T16:06:16.270Z,73.84
2023-01-03T16:09:01.122Z,73.78
2023-01-03T16:11:46.079Z,73.79
2023-01-03T16:14:30.890Z,74.80
2023-01-03T16:17:20.829Z,76.87
2023-01-03T16:20:09.410Z,76.05
2023-01-03T16:23:01.087Z,78.20
2023-01-03T16:25:46.546Z,74.93
2023-01-03T16:28:31.434Z,75.03
2023-01-03T16:31:16.305Z,75.19
2023-01-03T16:34:01.298Z,73.27
2023-01-03T16:36:46.333Z,73.62
2023-01-03T16:39:31.244Z,74.42
2023-01-03T16:42:16.194Z,73.57
2023-01-03T16:45:01.004Z,71.89
2023-01-03T16:47:45.817Z,73.70
2023-01-03T16:50:30.682Z,73.42
2023-01-03T16:53:15.653Z,70.78
2023-01-03T16:56:00.539Z,71.92
2023-01-03T16:58:45.478Z,73.19
2023-01-03T17:01:30.401Z,73.77
2023-01-03T17:04:15.721Z,72.68
2023-01-03T17:07:01.272Z,72.80
2023-01-03T17:09:46.083Z,72.89
2023-01-03T17:12:30.918Z,72.46
2023-01-03T17:15:15.843Z,70.73
2023-01-03T17:18:00.935Z,73.10
2023-01-03T17:20:46.244Z,74.84
2023-01-03T17:23:31.131Z,74.54
2023-01-03T17:26:16.061Z,74.32
2023-01-03T17:29:01.027Z,75.48
2023-01-03T17:31:45.957Z,76.31
2023-01-03T17:34:30.852Z,77.27
2023-01-03T17:37:15.693Z,77.70
2023-01-03T17:40:00.736Z,76.89
2023-01-03T17:42:45.735Z,75.93
2023-01-03T17:45:30.814Z,75.57
2023-01-03T17:48:15.704Z,72.79
2023-01-03T17:51:00.885Z,75.68
2023-01-03T17:53:45.841Z,75.72
2023-01-03T17:56:30.755Z,77.26
2023-01-03T17:59:15.745Z,75.97
2023-01-03T18:02:00.793Z,75.69
2023-01-03T18:05:14.165Z,75.40
2023-01-03T18:07:51.111Z,76.49
2023-01-03T18:10:40.213Z,76.44
2023-01-03T18:13:28.726Z,77.37
2023-01-03T18:16:13.690Z,77.09
2023-01-03T18:18:59.082Z,75.46
2023-01-03T18:21:44.019Z,76.02
2023-01-03T18:24:28.756Z,75.50
2023-01-03T18:27:13.560Z,75.14
2023-01-03T18:29:58.447Z,75.63
2023-01-03T18:32:43.433Z,75.72
2023-01-03T18:35:34.048Z,74.15
2023-01-03T18:38:22.773Z,74.71
2023-01-03T18:41:07.700Z,75.10
2023-01-03T18:43:52.697Z,76.35
2023-01-03T18:46:37.797Z,75.06
2023-01-03T18:49:23.019Z,75.64
2023-01-03T18:52:07.936Z,75.73
2023-01-03T18:54:52.740Z,76.11
2023-01-03T18:57:37.752Z,76.51
2023-01-03T19:00:22.695Z,75.55
2023-01-03T19:03:07.848Z,75.84
2023-01-03T19:05:53.006Z,76.25
2023-01-03T19:08:37.747Z,74.84
2023-01-03T19:11:22.631Z,76.17
2023-01-03T19:14:07.533Z,77.50
2023-01-03T19:16:52.547Z,76.96
2023-01-03T19:19:37.353Z,77.67
2023-01-03T19:22:22.414Z,76.93
2023-01-03T19:25:07.271Z,76.47
2023-01-03T19:27:52.137Z,77.73
2023-01-03T19:30:43.077Z,77.98
2023-01-03T19:33:28.377Z,77.20
2023-01-03T19:36:13.322Z,77.61
2023-01-03T19:38:58.103Z,75.55
2023-01-03T19:41:43.118Z,76.04
2023-01-03T19:44:28.247Z,77.46
2023-01-03T19:47:13.598Z,76.86
2023-01-03T19:49:58.480Z,76.86
2023-01-03T19:52:43.325Z,76.32
2023-01-03T19:55:28.348Z,76.59
2023-01-03T19:58:13.228Z,77.80
2023-01-03T20:00:58.161Z,77.56
2023-01-03T20:03:43.165Z,77.71
2023-01-03T20:06:28.408Z,76.37
2023-01-03T20:09:13.155Z,76.94
2023-01-03T20:11:57.909Z,77.93
2023-01-03T20:14:43.057Z,78.51
2023-01-03T20:17:27.905Z,78.32
2023-01-03T20:20:12.963Z,77.20
2023-01-03T20:23:06.631Z,76.92
2023-01-03T20:25:52.237Z,75.78
2023-01-03T20:28:37.167Z,76.01
2023-01-03T20:31:22.385Z,75.89
2023-01-03T20:34:07.698Z,76.85
2023-01-03T20:36:52.592Z,77.34
2023-01-03T20:39:37.389Z,77.03
2023-01-03T20:42:22.281Z,76.97
2023-01-03T20:45:07.115Z,75.50
2023-01-03T20:47:52.313Z,74.80
2023-01-03T20:50:37.503Z,77.13
2023-01-03T20:53:22.452Z,74.94
2023-01-03T20:56:07.390Z,75.98
2023-01-03T20:58:52.316Z,76.53
2023-01-03T21:01:37.484Z,76.46
2023-01-03T21:04:22.559Z,76.32
2023-01-03T21:07:11.597Z,74.65
2023-01-03T21:09:57.207Z,74.90
2023-01-03T21:12:41.943Z,75.21
2023-01-03T21:15:26.807Z,75.56
2023-01-03T21:18:11.695Z,76.17
2023-01-03T21:20:56.707Z,76.53
2023-01-03T21:23:42.213Z,76.87
2023-01-03T21:26:27.040Z,76.32
2023-01-03T21:29:12.143Z,77.10
2023-01-03T21:31:57.093Z,77.23
2023-01-03T21:34:42.475Z,76.70
2023-01-03T21:37:27.505Z,76.23
2023-01-03T21:40:12.754Z,76.29
2023-01-03T21:43:03.319Z,75.86
2023-01-03T21:45:49.101Z,75.88
2023-01-03T21:48:34.038Z,76.01
2023-01-03T21:51:31.756Z,75.79
2023-01-03T21:54:22.593Z,74.74
2023-01-03T21:57:07.415Z,74.99
2023-01-03T21:59:52.391Z,74.78
2023-01-03T22:02:37.465Z,74.58
2023-01-03T22:05:22.844Z,74.20
2023-01-03T22:08:07.708Z,75.29
2023-01-03T22:10:52.643Z,75.36
2023-01-03T22:13:37.328Z,74.51
2023-01-03T22:16:22.300Z,74.91
2023-01-03T22:19:07.023Z,75.28
2023-01-03T22:21:52.036Z,74.91
2023-01-03T22:24:36.961Z,75.67
2023-01-03T22:27:21.827Z,75.63
2023-01-03T22:30:06.838Z,76.15
2023-01-03T22:32:51.872Z,73.64
2023-01-03T22:35:36.702Z,73.80
2023-01-03T22:38:21.572Z,74.13
2023-01-03T22:41:06.572Z,74.65
2023-01-03T22:43:51.338Z,73.05
2023-01-03T22:46:36.209Z,74.48
2023-01-03T22:49:21.167Z,74.44
2023-01-03T22:52:06.122Z,73.80
2023-01-03T22:54:51.087Z,73.10
2023-01-03T22:57:35.876Z,73.54
2023-01-03T23:00:20.774Z,73.66
2023-01-03T23:03:05.829Z,73.47
2023-01-03T23:05:51.069Z,72.83
2023-01-03T23:08:35.946Z,73.26
2023-01-03T23:11:20.764Z,73.19
2023-01-03T23:14:05.747Z,72.54
2023-01-03T23:16:50.932Z,73.49
2023-01-03T23:19:36.207Z,74.36
2023-01-03T23:22:21.141Z,73.00
2023-01-03T23:25:06.142Z,73.39
2023-01-03T23:27:50.976Z,74.02
2023-01-03T23:30:35.965Z,74.12
2023-01-03T23:33:21.256Z,73.44
2023-01-03T23:36:06.266Z,73.15
2023-01-03T23:38:51.235Z,73.21
2023-01-03T23:41:36.025Z,73.36
2023-01-03T23:44:21.050Z,74.29
2023-01-03T23:47:11.367Z,73.51
2023-01-03T23:49:57.293Z,72.67
2023-01-03T23:52:42.159Z,73.16
2023-01-03T23:55:26.915Z,73.60
2023-01-03T23:58:11.928Z,74.07
